createdAt,value
2018-08-07T00:01:57.009Z,4.37
2018-08-07T00:04:24.505Z,4.23
2018-08-07T00:06:52.008Z,4.10
2018-08-07T00:09:19.549Z,4.07
2018-08-07T00:11:47.059Z,3.87
2018-08-07T00:14:14.533Z,3.97
2018-08-07T00:16:42.085Z,4.03
2018-08-07T00:19:09.670Z,4.20
2018-08-07T00:21:37.245Z,4.33
2018-08-07T00:24:04.827Z,4.33
2018-08-07T00:26:32.259Z,4.27
2018-08-07T00:28:59.895Z,4.50
2018-08-07T00:31:27.453Z,4.33
2018-08-07T00:33:55.063Z,4.20
2018-08-07T00:36:22.498Z,4.17
2018-08-07T00:38:49.986Z,4.30
2018-08-07T00:41:17.515Z,4.30
2018-08-07T00:43:45.051Z,4.30
2018-08-07T00:46:12.622Z,4.77
2018-08-07T00:48:40.160Z,4.53
2018-08-07T00:51:07.672Z,4.37
2018-08-07T00:53:35.071Z,4.60
2018-08-07T00:56:02.636Z,4.53
2018-08-07T00:58:30.226Z,4.43
2018-08-07T01:00:57.806Z,4.50
2018-08-07T01:03:25.282Z,4.30
2018-08-07T01:05:52.918Z,4.70
2018-08-07T01:08:20.367Z,4.60
2018-08-07T01:10:47.898Z,4.53
2018-08-07T01:13:15.378Z,4.47
2018-08-07T01:15:42.892Z,4.37
2018-08-07T01:18:10.414Z,4.30
2018-08-07T01:20:37.866Z,4.67
2018-08-07T01:23:05.284Z,4.30
2018-08-07T01:25:32.796Z,4.90
2018-08-07T01:28:00.350Z,4.47
2018-08-07T01:30:29.038Z,4.40
2018-08-07T01:32:56.758Z,4.80
2018-08-07T01:35:25.265Z,4.50
2018-08-07T01:37:52.721Z,4.43
2018-08-07T01:40:20.154Z,4.37
2018-08-07T01:42:47.702Z,4.47
2018-08-07T01:45:15.304Z,4.10
2018-08-07T01:47:42.865Z,4.10
2018-08-07T01:50:12.462Z,4.00
2018-08-07T01:52:39.917Z,4.10
2018-08-07T01:55:08.314Z,4.23
2018-08-07T01:57:35.855Z,4.07
2018-08-07T02:00:04.422Z,4.33
2018-08-07T02:02:31.957Z,3.87
2018-08-07T02:04:59.596Z,4.07
2018-08-07T02:07:27.068Z,3.83
2018-08-07T02:09:54.655Z,4.23
2018-08-07T02:12:22.197Z,4.27
2018-08-07T02:14:49.708Z,4.00
2018-08-07T02:17:17.261Z,4.40
2018-08-07T02:19:44.753Z,4.33
2018-08-07T02:22:12.287Z,4.10
2018-08-07T02:24:39.795Z,4.27
2018-08-07T02:27:07.337Z,4.13
2018-08-07T02:29:34.977Z,4.40
2018-08-07T02:32:02.477Z,4.33
2018-08-07T02:34:29.935Z,4.73
2018-08-07T02:36:57.338Z,4.00
2018-08-07T02:39:24.867Z,3.83
2018-08-07T02:41:52.371Z,3.93
2018-08-07T02:44:19.868Z,3.87
2018-08-07T02:46:47.351Z,4.03
2018-08-07T02:49:14.857Z,4.03
2018-08-07T02:51:42.316Z,4.10
2018-08-07T02:54:09.869Z,4.10
2018-08-07T02:56:37.406Z,4.00
2018-08-07T02:59:04.985Z,4.30
2018-08-07T03:01:32.525Z,4.40
2018-08-07T03:04:00.141Z,4.20
2018-08-07T03:06:27.716Z,4.27
2018-08-07T03:08:55.303Z,3.90
2018-08-07T03:11:22.795Z,4.00
2018-08-07T03:13:50.415Z,3.80
2018-08-07T03:16:18.013Z,4.80
2018-08-07T03:18:45.530Z,4.00
2018-08-07T03:21:13.433Z,4.10
2018-08-07T03:23:40.929Z,3.90
2018-08-07T03:26:08.467Z,3.90
2018-08-07T03:28:36.005Z,4.13
2018-08-07T03:31:03.555Z,3.80
2018-08-07T03:33:31.111Z,4.13
2018-08-07T03:35:58.600Z,4.10
2018-08-07T03:38:26.116Z,4.50
2018-08-07T03:40:53.656Z,4.17
2018-08-07T03:43:21.242Z,4.10
2018-08-07T03:45:48.762Z,4.30
2018-08-07T03:48:16.300Z,3.70
2018-08-07T03:50:44.486Z,4.07
2018-08-07T03:53:12.115Z,3.93
2018-08-07T03:55:39.504Z,4.10
2018-08-07T03:58:07.016Z,3.73
2018-08-07T04:00:39.100Z,3.90
2018-08-07T04:03:06.638Z,3.57
2018-08-07T04:05:34.176Z,3.73
2018-08-07T04:08:01.872Z,3.67
2018-08-07T04:10:29.262Z,4.10
2018-08-07T04:12:56.856Z,4.10
2018-08-07T04:15:25.019Z,3.90
2018-08-07T04:17:52.581Z,3.87
2018-08-07T04:20:20.068Z,4.27
2018-08-07T04:22:47.588Z,4.20
2018-08-07T04:25:15.198Z,3.80
2018-08-07T04:27:42.764Z,3.83
2018-08-07T04:30:16.365Z,3.87
2018-08-07T04:32:44.154Z,3.70
2018-08-07T04:35:12.320Z,3.60
2018-08-07T04:37:39.803Z,3.73
2018-08-07T04:40:08.123Z,3.80
2018-08-07T04:42:36.390Z,3.80
2018-08-07T04:45:06.018Z,3.47
2018-08-07T04:47:33.508Z,3.90
2018-08-07T04:50:01.393Z,3.47
2018-08-07T04:52:28.887Z,3.90
2018-08-07T04:54:56.265Z,3.57
2018-08-07T04:57:23.742Z,3.67
2018-08-07T04:59:51.311Z,3.77
2018-08-07T05:02:18.957Z,3.60
2018-08-07T05:04:46.602Z,3.60
2018-08-07T05:07:14.099Z,3.80
2018-08-07T05:09:41.571Z,3.27
2018-08-07T05:12:09.183Z,4.00
2018-08-07T05:14:36.741Z,3.40
2018-08-07T05:17:04.316Z,3.17
2018-08-07T05:19:31.861Z,3.53
2018-08-07T05:21:59.426Z,3.80
2018-08-07T05:24:26.985Z,3.70
2018-08-07T05:26:55.051Z,3.97
2018-08-07T05:29:22.601Z,3.80
2018-08-07T05:31:50.095Z,3.70
2018-08-07T05:34:17.590Z,3.43
2018-08-07T05:36:45.085Z,3.67
2018-08-07T05:39:12.627Z,3.97
2018-08-07T05:41:40.199Z,3.90
2018-08-07T05:44:07.847Z,4.10
2018-08-07T05:46:35.447Z,4.00
2018-08-07T05:49:03.035Z,3.60
2018-08-07T05:51:31.109Z,3.60
2018-08-07T05:53:58.666Z,3.87
2018-08-07T05:56:26.114Z,4.57
2018-08-07T05:58:53.788Z,3.83
2018-08-07T06:01:21.093Z,4.13
2018-08-07T06:03:48.800Z,4.13
2018-08-07T06:06:16.284Z,3.87
2018-08-07T06:08:43.769Z,3.93
2018-08-07T06:11:11.256Z,4.50
2018-08-07T06:13:38.782Z,4.17
2018-08-07T06:16:06.363Z,3.77
2018-08-07T06:18:33.899Z,3.83
2018-08-07T06:21:01.576Z,3.60
2018-08-07T06:23:29.131Z,4.40
2018-08-07T06:25:56.707Z,4.37
2018-08-07T06:28:24.242Z,3.60
2018-08-07T06:30:51.784Z,3.90
2018-08-07T06:33:19.255Z,4.00
2018-08-07T06:35:46.833Z,3.40
2018-08-07T06:38:14.399Z,3.50
2018-08-07T06:40:41.944Z,3.80
2018-08-07T06:43:09.472Z,3.60
2018-08-07T06:45:36.958Z,3.93
2018-08-07T06:48:05.431Z,3.30
2018-08-07T06:50:32.866Z,3.57
2018-08-07T06:53:00.369Z,3.77
2018-08-07T06:55:27.804Z,3.70
2018-08-07T06:57:55.261Z,3.80
2018-08-07T07:00:24.074Z,3.73
2018-08-07T07:02:52.088Z,3.87
2018-08-07T07:05:19.946Z,3.63
2018-08-07T07:07:47.462Z,3.90
2018-08-07T07:10:15.005Z,3.60
2018-08-07T07:12:43.800Z,3.63
2018-08-07T07:15:12.735Z,3.57
2018-08-07T07:17:40.434Z,3.73
2018-08-07T07:20:11.492Z,3.43
2018-08-07T07:22:39.269Z,3.53
2018-08-07T07:25:07.248Z,3.50
2018-08-07T07:27:34.786Z,3.93
2018-08-07T07:30:02.445Z,4.40
2018-08-07T07:32:29.926Z,3.90
2018-08-07T07:34:57.593Z,3.87
2018-08-07T07:37:25.045Z,3.70
2018-08-07T07:39:53.361Z,3.50
2018-08-07T07:42:20.844Z,3.63
2018-08-07T07:44:48.403Z,3.70
2018-08-07T07:47:15.883Z,3.73
2018-08-07T07:49:43.375Z,3.97
2018-08-07T07:52:10.910Z,4.10
2018-08-07T07:54:38.306Z,3.30
2018-08-07T07:57:05.908Z,3.60
2018-08-07T07:59:33.370Z,3.73
2018-08-07T08:02:00.801Z,3.83
2018-08-07T08:04:28.308Z,3.77
2018-08-07T08:06:55.824Z,4.13
2018-08-07T08:09:23.278Z,4.07
2018-08-07T08:11:50.830Z,4.20
2018-08-07T08:14:18.401Z,4.17
2018-08-07T08:16:45.890Z,3.70
2018-08-07T08:19:13.450Z,4.00
2018-08-07T08:21:41.009Z,4.10
2018-08-07T08:24:08.533Z,4.10
2018-08-07T08:26:36.080Z,3.63
2018-08-07T08:29:03.627Z,3.90
2018-08-07T08:31:31.113Z,4.20
2018-08-07T08:33:58.719Z,3.70
2018-08-07T08:36:26.288Z,3.77
2018-08-07T08:38:54.121Z,4.03
2018-08-07T08:41:21.555Z,3.90
2018-08-07T08:43:49.034Z,3.73
2018-08-07T08:46:16.486Z,3.77
2018-08-07T08:48:43.942Z,3.80
2018-08-07T08:51:11.321Z,4.17
2018-08-07T08:53:38.884Z,3.90
2018-08-07T08:56:06.441Z,4.20
2018-08-07T08:58:33.909Z,4.00
2018-08-07T09:01:01.403Z,4.17
2018-08-07T09:03:28.964Z,4.10
2018-08-07T09:05:56.395Z,3.83
2018-08-07T09:08:23.877Z,3.87
2018-08-07T09:10:51.476Z,3.93
2018-08-07T09:13:18.955Z,4.27
2018-08-07T09:15:46.442Z,4.10
2018-08-07T09:18:14.167Z,4.50
2018-08-07T09:20:41.708Z,4.00
2018-08-07T09:23:09.976Z,4.43
2018-08-07T09:25:37.661Z,4.40
2018-08-07T09:28:05.089Z,4.33
2018-08-07T09:30:32.616Z,4.20
2018-08-07T09:33:00.945Z,4.27
2018-08-07T09:35:28.513Z,4.40
2018-08-07T09:37:56.768Z,4.30
2018-08-07T09:40:24.458Z,4.10
2018-08-07T09:42:53.239Z,4.70
2018-08-07T09:45:24.254Z,4.37
2018-08-07T09:47:51.772Z,4.60
2018-08-07T09:50:19.978Z,4.67
2018-08-07T09:52:48.128Z,4.30
2018-08-07T09:55:15.646Z,4.37
2018-08-07T09:57:43.152Z,4.80
2018-08-07T10:00:11.698Z,4.27
2018-08-07T10:02:44.207Z,4.80
2018-08-07T10:05:11.836Z,4.70
2018-08-07T10:07:39.259Z,5.13
2018-08-07T10:10:06.775Z,4.77
2018-08-07T10:12:34.277Z,4.53
2018-08-07T10:15:01.768Z,4.83
2018-08-07T10:17:29.270Z,4.83
2018-08-07T10:19:56.785Z,4.50
2018-08-07T10:22:24.490Z,5.00
2018-08-07T10:24:52.106Z,4.43
2018-08-07T10:27:21.172Z,4.53
2018-08-07T10:29:48.692Z,4.60
2018-08-07T10:32:16.197Z,4.37
2018-08-07T10:34:43.683Z,4.47
2018-08-07T10:37:11.320Z,4.30
2018-08-07T10:39:39.015Z,4.37
2018-08-07T10:42:06.519Z,4.47
2018-08-07T10:44:34.118Z,4.20
2018-08-07T10:47:01.761Z,4.17
2018-08-07T10:49:29.335Z,4.20
2018-08-07T10:51:56.881Z,4.73
2018-08-07T10:54:24.393Z,4.03
2018-08-07T10:56:51.953Z,4.43
2018-08-07T10:59:19.465Z,4.53
2018-08-07T11:01:46.989Z,4.63
2018-08-07T11:04:14.521Z,4.53
2018-08-07T11:06:41.993Z,4.63
2018-08-07T11:09:10.132Z,4.60
2018-08-07T11:11:37.682Z,4.33
2018-08-07T11:14:05.407Z,4.67
2018-08-07T11:16:33.123Z,4.40
2018-08-07T11:19:01.251Z,4.43
2018-08-07T11:21:28.956Z,5.07
2018-08-07T11:23:56.385Z,4.70
2018-08-07T11:26:23.954Z,4.50
2018-08-07T11:28:51.459Z,4.67
2018-08-07T11:31:19.984Z,4.60
2018-08-07T11:33:47.506Z,4.70
2018-08-07T11:36:15.024Z,4.43
2018-08-07T11:38:42.495Z,4.47
2018-08-07T11:41:09.999Z,4.97
2018-08-07T11:43:37.785Z,4.93
2018-08-07T11:46:05.565Z,4.70
2018-08-07T11:48:33.026Z,5.00
2018-08-07T11:51:00.470Z,5.03
2018-08-07T11:53:27.894Z,4.83
2018-08-07T11:55:55.398Z,4.70
2018-08-07T11:58:22.899Z,4.87
2018-08-07T12:00:50.409Z,5.20
2018-08-07T12:03:17.878Z,5.13
2018-08-07T12:05:45.459Z,4.87
2018-08-07T12:08:13.015Z,4.87
2018-08-07T12:10:40.516Z,4.60
2018-08-07T12:13:08.003Z,4.90
2018-08-07T12:15:35.466Z,4.93
2018-08-07T12:18:03.364Z,5.33
2018-08-07T12:20:30.902Z,5.10
2018-08-07T12:22:58.421Z,5.00
2018-08-07T12:25:25.928Z,5.30
2018-08-07T12:27:53.557Z,5.43
2018-08-07T12:30:24.294Z,5.10
2018-08-07T12:32:51.871Z,4.97
2018-08-07T12:35:19.499Z,5.20
2018-08-07T12:37:47.150Z,4.93
2018-08-07T12:40:17.585Z,5.17
2018-08-07T12:42:45.570Z,5.27
2018-08-07T12:45:13.128Z,4.80
2018-08-07T12:47:41.583Z,4.93
2018-08-07T12:50:10.437Z,5.40
2018-08-07T12:52:38.469Z,5.23
2018-08-07T12:55:06.790Z,5.23
2018-08-07T12:57:34.446Z,5.53
2018-08-07T13:00:02.775Z,5.23
2018-08-07T13:02:30.310Z,5.07
2018-08-07T13:04:57.773Z,5.53
2018-08-07T13:07:25.641Z,5.70
2018-08-07T13:09:53.373Z,5.30
2018-08-07T13:12:21.031Z,5.67
2018-08-07T13:14:48.942Z,5.60
2018-08-07T13:17:18.879Z,5.17
2018-08-07T13:19:46.265Z,5.73
2018-08-07T13:22:13.818Z,5.83
2018-08-07T13:24:41.385Z,5.73
2018-08-07T13:27:08.900Z,5.60
2018-08-07T13:29:36.513Z,5.67
2018-08-07T13:32:03.985Z,5.60
2018-08-07T13:34:31.457Z,5.50
2018-08-07T13:36:58.976Z,5.90
2018-08-07T13:39:26.541Z,5.93
2018-08-07T13:41:54.089Z,5.97
2018-08-07T13:44:21.516Z,5.93
2018-08-07T13:46:49.058Z,6.00
2018-08-07T13:49:16.576Z,5.40
2018-08-07T13:51:44.058Z,5.30
2018-08-07T13:54:11.556Z,5.33
2018-08-07T13:56:39.052Z,5.23
2018-08-07T13:59:06.555Z,5.07
2018-08-07T14:01:34.111Z,4.70
2018-08-07T14:04:01.677Z,4.33
2018-08-07T14:06:29.263Z,4.27
2018-08-07T14:08:56.783Z,4.87
2018-08-07T14:11:24.311Z,5.80
2018-08-07T14:13:51.883Z,4.77
2018-08-07T14:16:19.387Z,4.30
2018-08-07T14:18:51.851Z,4.60
2018-08-07T14:21:19.481Z,5.03
2018-08-07T14:23:47.059Z,5.00
2018-08-07T14:26:14.587Z,4.13
2018-08-07T14:28:42.184Z,4.67
2018-08-07T14:31:09.665Z,4.40
2018-08-07T14:33:37.095Z,4.47
2018-08-07T14:36:04.694Z,4.17
2018-08-07T14:38:32.191Z,4.40
2018-08-07T14:40:59.738Z,4.40
2018-08-07T14:43:27.327Z,4.20
2018-08-07T14:45:54.857Z,4.40
2018-08-07T14:48:22.337Z,3.83
2018-08-07T14:50:49.795Z,4.03
2018-08-07T14:53:17.337Z,4.00
2018-08-07T14:55:44.933Z,4.03
2018-08-07T14:58:13.671Z,3.80
2018-08-07T15:00:41.187Z,4.20
2018-08-07T15:03:08.767Z,4.10
2018-08-07T15:05:36.266Z,3.53
2018-08-07T15:08:03.823Z,3.63
2018-08-07T15:10:31.375Z,3.80
2018-08-07T15:12:58.979Z,3.87
2018-08-07T15:15:28.609Z,3.63
2018-08-07T15:17:56.082Z,3.83
2018-08-07T15:20:25.206Z,3.60
2018-08-07T15:22:53.476Z,4.13
2018-08-07T15:25:21.689Z,4.00
2018-08-07T15:27:49.301Z,4.13
2018-08-07T15:30:18.164Z,4.30
2018-08-07T15:32:46.655Z,4.60
2018-08-07T15:35:15.753Z,4.27
2018-08-07T15:37:43.862Z,4.60
2018-08-07T15:40:14.627Z,4.27
2018-08-07T15:42:43.229Z,4.17
2018-08-07T15:45:11.148Z,4.13
2018-08-07T15:47:38.713Z,4.00
2018-08-07T15:50:10.360Z,4.10
2018-08-07T15:52:38.486Z,3.67
2018-08-07T15:55:06.091Z,4.10
2018-08-07T15:57:33.640Z,4.10
2018-08-07T16:00:01.171Z,4.30
2018-08-07T16:02:28.724Z,4.50
2018-08-07T16:04:56.326Z,4.07
2018-08-07T16:07:23.877Z,3.80
2018-08-07T16:09:51.370Z,3.93
2018-08-07T16:12:18.842Z,3.77
2018-08-07T16:14:46.269Z,3.90
2018-08-07T16:17:13.845Z,4.00
2018-08-07T16:19:41.250Z,3.90
2018-08-07T16:22:08.788Z,4.03
2018-08-07T16:24:36.195Z,4.27
2018-08-07T16:27:03.744Z,4.50
2018-08-07T16:29:31.231Z,4.40
2018-08-07T16:31:58.793Z,4.63
2018-08-07T16:34:26.377Z,5.30
2018-08-07T16:36:53.924Z,5.07
2018-08-07T16:39:21.439Z,5.40
2018-08-07T16:41:48.930Z,5.07
2018-08-07T16:44:49.944Z,5.50
2018-08-07T16:47:17.510Z,5.13
2018-08-07T16:49:45.399Z,4.77
2018-08-07T16:52:12.903Z,5.00
2018-08-07T16:54:40.372Z,4.87
2018-08-07T16:57:07.953Z,4.97
2018-08-07T16:59:35.378Z,4.80
2018-08-07T17:02:02.961Z,4.77
2018-08-07T17:04:30.472Z,4.73
2018-08-07T17:06:57.949Z,5.17
2018-08-07T17:09:25.523Z,4.53
2018-08-07T17:11:53.088Z,4.57
2018-08-07T17:14:20.538Z,4.70
2018-08-07T17:16:48.145Z,4.53
2018-08-07T17:19:15.719Z,5.27
2018-08-07T17:21:43.250Z,4.77
2018-08-07T17:24:10.802Z,4.70
2018-08-07T17:26:38.320Z,4.10
2018-08-07T17:29:05.821Z,4.40
2018-08-07T17:31:33.400Z,4.67
2018-08-07T17:34:00.924Z,4.40
2018-08-07T17:36:28.522Z,4.40
2018-08-07T17:38:56.074Z,4.37
2018-08-07T17:41:23.616Z,4.53
2018-08-07T17:43:51.143Z,4.47
2018-08-07T17:46:18.819Z,4.90
2018-08-07T17:48:46.552Z,4.83
2018-08-07T17:51:14.115Z,4.43
2018-08-07T17:53:41.635Z,5.27
2018-08-07T17:56:09.160Z,4.73
2018-08-07T17:58:36.666Z,5.57
2018-08-07T18:01:04.260Z,5.00
2018-08-07T18:03:31.880Z,5.70
2018-08-07T18:05:59.427Z,5.10
2018-08-07T18:08:26.937Z,5.10
2018-08-07T18:10:54.459Z,5.33
2018-08-07T18:13:22.098Z,5.53
2018-08-07T18:15:49.601Z,5.73
2018-08-07T18:18:17.133Z,6.07
2018-08-07T18:20:44.660Z,6.33
2018-08-07T18:23:12.169Z,5.60
2018-08-07T18:25:39.687Z,6.07
2018-08-07T18:28:07.238Z,5.93
2018-08-07T18:30:35.410Z,6.07
2018-08-07T18:33:02.993Z,5.87
2018-08-07T18:37:42.789Z,6.10
2018-08-07T18:40:10.370Z,5.13
2018-08-07T18:42:37.982Z,4.90
2018-08-07T18:45:07.508Z,6.00
2018-08-07T18:47:35.099Z,5.97
2018-08-07T18:50:02.662Z,5.53
2018-08-07T18:52:30.254Z,5.20
2018-08-07T18:54:57.794Z,5.37
2018-08-07T18:57:25.452Z,5.60
2018-08-07T18:59:52.942Z,5.83
2018-08-07T19:02:20.509Z,5.70
2018-08-07T19:04:48.124Z,5.37
2018-08-07T19:07:15.656Z,5.83
2018-08-07T19:09:43.216Z,5.10
2018-08-07T19:12:10.760Z,5.23
2018-08-07T19:14:38.269Z,5.40
2018-08-07T19:17:18.074Z,5.30
2018-08-07T19:19:45.658Z,5.30
2018-08-07T19:22:13.188Z,5.10
2018-08-07T19:24:40.734Z,5.40
2018-08-07T19:27:08.297Z,5.50
2018-08-07T19:29:35.880Z,5.23
2018-08-07T19:32:03.372Z,5.20
2018-08-07T19:34:30.892Z,4.40
2018-08-07T19:36:58.378Z,4.93
2018-08-07T19:39:25.890Z,4.90
2018-08-07T19:41:53.433Z,5.33
2018-08-07T19:44:21.084Z,5.30
2018-08-07T19:46:48.627Z,5.07
2018-08-07T19:49:16.114Z,4.87
2018-08-07T19:51:43.676Z,4.60
2018-08-07T19:54:11.243Z,4.77
2018-08-07T19:56:38.902Z,4.70
2018-08-07T19:59:06.420Z,4.90
2018-08-07T20:01:33.959Z,4.70
2018-08-07T20:04:01.438Z,4.70
2018-08-07T20:06:28.946Z,4.90
2018-08-07T20:08:56.534Z,4.77
2018-08-07T20:11:24.124Z,4.90
2018-08-07T20:13:51.711Z,5.20
2018-08-07T20:16:19.214Z,4.73
2018-08-07T20:18:46.767Z,4.80
2018-08-07T20:21:14.244Z,4.80
2018-08-07T20:23:41.780Z,4.87
2018-08-07T20:26:09.496Z,4.97
2018-08-07T20:28:37.019Z,4.73
2018-08-07T20:31:04.635Z,4.90
2018-08-07T20:33:32.130Z,5.20
2018-08-07T20:35:59.634Z,5.10
2018-08-07T20:38:27.225Z,5.60
2018-08-07T20:40:54.772Z,5.20
2018-08-07T20:43:22.410Z,5.30
2018-08-07T20:45:49.967Z,5.37
2018-08-07T20:48:17.488Z,5.00
2018-08-07T20:53:19.338Z,5.40
2018-08-07T20:55:46.936Z,5.20
2018-08-07T20:58:14.449Z,5.40
2018-08-07T21:00:42.007Z,5.10
2018-08-07T21:03:09.540Z,5.70
2018-08-07T21:05:37.140Z,5.60
2018-08-07T21:08:04.851Z,5.00
2018-08-07T21:10:33.233Z,5.07
2018-08-07T21:13:00.815Z,5.50
2018-08-07T21:15:28.433Z,5.00
2018-08-07T21:17:56.035Z,5.80
2018-08-07T21:20:25.212Z,5.90
2018-08-07T21:22:53.401Z,5.50
2018-08-07T21:25:22.412Z,5.60
2018-08-07T21:27:55.558Z,5.77
2018-08-07T21:30:24.645Z,5.70
2018-08-07T21:32:52.243Z,5.53
2018-08-07T21:35:19.846Z,5.70
2018-08-07T21:37:47.426Z,5.97
2018-08-07T21:40:16.356Z,5.60
2018-08-07T21:42:44.360Z,5.60
2018-08-07T21:45:12.420Z,5.23
2018-08-07T21:47:39.924Z,5.47
2018-08-07T21:50:10.609Z,5.77
2018-08-07T21:52:38.152Z,5.67
2018-08-07T21:55:06.952Z,5.47
2018-08-07T21:57:34.845Z,5.77
2018-08-07T22:00:02.603Z,5.43
2018-08-07T22:02:30.159Z,5.57
2018-08-07T22:04:57.673Z,5.43
2018-08-07T22:07:25.373Z,5.87
2018-08-07T22:09:52.850Z,5.70
2018-08-07T22:12:20.428Z,6.20
2018-08-07T22:14:47.930Z,6.10
2018-08-07T22:17:15.593Z,6.00
2018-08-07T22:19:43.159Z,5.63
2018-08-07T22:22:10.769Z,5.80
2018-08-07T22:24:38.279Z,5.90
2018-08-07T22:27:05.892Z,5.87
2018-08-07T22:29:33.410Z,5.80
2018-08-07T22:32:00.959Z,5.70
2018-08-07T22:34:28.442Z,5.50
2018-08-07T22:36:55.944Z,5.80
2018-08-07T22:39:23.408Z,5.83
2018-08-07T22:41:50.868Z,5.63
2018-08-07T22:44:18.364Z,6.23
2018-08-07T22:46:45.877Z,6.10
2018-08-07T22:49:13.465Z,6.30
2018-08-07T22:51:41.001Z,5.70
2018-08-07T22:54:08.466Z,6.23
2018-08-07T22:56:35.937Z,5.67
2018-08-07T22:59:03.517Z,6.00
2018-08-07T23:01:31.981Z,6.03
2018-08-07T23:03:59.435Z,5.90
2018-08-07T23:06:27.052Z,5.63
2018-08-07T23:08:54.564Z,6.17
2018-08-07T23:11:22.035Z,6.27
2018-08-07T23:13:49.504Z,6.00
2018-08-07T23:16:16.967Z,6.10
2018-08-07T23:18:44.507Z,5.83
2018-08-07T23:21:12.015Z,6.07
2018-08-07T23:23:39.537Z,6.47
2018-08-07T23:26:07.081Z,6.30
2018-08-07T23:28:34.608Z,6.10
2018-08-07T23:31:02.137Z,6.03
2018-08-07T23:33:29.639Z,6.40
2018-08-07T23:35:57.123Z,6.27
2018-08-07T23:38:24.599Z,5.80
2018-08-07T23:40:52.079Z,5.93
2018-08-07T23:43:19.607Z,6.67
2018-08-07T23:45:47.119Z,6.10
2018-08-07T23:48:14.611Z,5.97
2018-08-07T23:50:42.155Z,6.23
2018-08-07T23:53:09.615Z,6.03
2018-08-07T23:55:37.187Z,6.27
2018-08-07T23:58:04.723Z,6.30
